KMRN

Foothills Regional Airport

Morganton, North Carolina, USA
METAR KMRN 231555Z AUTO 00000KT 5SM BR OVC003 17/17 A3048 RMK AO2 T01660166
Observed Flight Rules
Feb-23 @ 15:55 UTC (45 minutes ago) Instrument Flight Rules
Wind Visibility Clouds Conditions
Calm 5 miles
  • Overcast at 300' AGL
  • Mist
Temperatures Readings
Current 17°C / 63°F
Dewpoint 17°C / 63°F
Humidity 100%
Altimeter 30.48" Hg
Pressure 1032 hPa
Elevation 387
METAR KMRN 231555Z AUTO 00000KT 5SM BR OVC003 17/17 A3048 RMK AO2 T01660166
Observed Flight Rules
Feb-23 @ 15:55 UTC
(45 minutes ago)
LIFR
Wind Visibility
Calm 5 miles
Clouds
  • Overcast at 300' AGL
Conditions
  • Mist
Temperature Dewpoint
17°C / 63°F 17°C / 63°F
Humidity Altimeter Pressure
100% 30.48" Hg 1032 hPa